Time;durP1;ratioP1;P1;durP2;ratioP2;P2;SDS_P1;SDS_P2;PMS_P1;PMS_P2;Temp;Humidity;BMP_temperature;BMP_pressure;BME280_temperature;BME280_humidity;BME280_pressure;Samples;Min_cycle;Max_cycle;Signal;HPM_P1;HPM_P2
2022/06/28 00:00:53;;;;;;;;;3.00;3.00;;;;;23.13;42.92;101557.75;2095075;28;47193;-55
2022/06/28 00:01:54;;;;;;;;;2.75;2.00;;;;;23.13;42.39;101555.03;2088303;28;47075;-55
2022/06/28 00:02:55;;;;;;;;;1.00;1.00;;;;;23.11;42.64;101551.53;2088298;28;47281;-56
2022/06/28 00:03:55;;;;;;;;;1.00;1.00;;;;;23.11;42.72;101548.81;2084141;28;47526;-55
2022/06/28 00:04:55;;;;;;;;;0.33;0.33;;;;;23.09;42.73;101549.88;2081662;28;47450;-56
2022/06/28 00:05:56;;;;;;;;;2.00;2.00;;;;;;;;2088366;28;47627;-54
2022/06/28 00:06:56;;;;;;;;;1.25;1.25;;;;;23.07;42.93;101549.09;2085885;28;48095;-55
2022/06/28 00:07:57;;;;;;;;;2.50;2.50;;;;;23.06;42.75;101542.81;2080367;28;47806;-56
2022/06/28 00:08:57;;;;;;;;;3.25;1.75;;;;;23.07;42.71;101541.00;2087511;28;47534;-56
2022/06/28 00:09:57;;;;;;;;;2.50;1.00;;;;;23.05;43.07;101545.63;2088278;28;47316;-54
2022/06/28 00:10:58;;;;;;;;;3.00;3.00;;;;;23.05;43.03;101543.78;2088252;28;47845;-56
2022/06/28 00:11:58;;;;;;;;;1.00;1.00;;;;;23.05;42.84;101542.91;2088905;28;47547;-55
2022/06/28 00:12:59;;;;;;;;;2.00;2.00;;;;;23.04;43.33;101538.47;2087516;28;47213;-55
2022/06/28 00:14:00;;;;;;;;;2.67;2.00;;;;;23.04;42.81;101543.88;2084250;28;47465;-56
2022/06/28 00:16:19;;;;;;;;;2.25;1.25;;;;;23.01;42.99;101535.97;2088858;28;47159;-55
2022/06/28 00:17:20;;;;;;;;;1.00;1.00;;;;;23.00;43.26;101535.09;2088549;28;47267;-57
2022/06/28 00:18:21;;;;;;;;;1.75;1.75;;;;;22.98;42.91;101534.28;2087399;28;48087;-56
2022/06/28 00:19:21;;;;;;;;;3.20;2.00;;;;;22.98;42.90;101537.00;2087556;28;47756;-56
2022/06/28 00:20:22;;;;;;;;;3.00;3.00;;;;;22.97;43.06;101535.25;2088658;28;47610;-55
2022/06/28 00:21:24;;;;;;;;;3.33;2.67;;;;;22.96;43.24;101541.63;2088582;28;47137;-56
2022/06/28 00:22:24;;;;;;;;;1.75;1.75;;;;;22.94;43.21;101535.44;2087902;28;47510;-55
2022/06/28 00:23:25;;;;;;;;;3.00;1.67;;;;;22.93;43.37;101541.81;2088661;28;47669;-57
2022/06/28 00:24:25;;;;;;;;;1.00;1.00;;;;;22.92;43.19;101533.78;2088177;28;47166;-54
2022/06/28 00:25:26;;;;;;;;;0.00;0.00;;;;;22.91;43.23;101538.34;2088166;28;47283;-57
2022/06/28 00:26:26;;;;;;;;;1.00;1.00;;;;;22.90;43.05;101539.31;2088710;28;47286;-57
2022/06/28 00:27:27;;;;;;;;;2.00;2.00;;;;;22.89;43.28;101540.28;2088677;28;47831;-57
2022/06/28 00:28:27;;;;;;;;;1.67;1.67;;;;;22.87;42.98;101536.78;2088630;28;47628;-53
2022/06/28 00:29:28;;;;;;;;;2.00;1.00;;;;;22.86;43.47;101532.31;2088120;28;47181;-57
2022/06/28 00:30:29;;;;;;;;;1.00;1.00;;;;;22.86;43.51;101537.72;2085443;28;46479;-56
2022/06/28 00:31:29;;;;;;;;;2.25;0.00;;;;;22.85;43.00;101536.00;2085312;28;47519;-55
2022/06/28 00:32:32;;;;;;;;;3.00;1.67;;;;;22.84;43.47;101545.94;2088508;28;47326;-55
2022/06/28 00:33:32;;;;;;;;;2.00;1.25;;;;;22.83;43.67;101544.19;2088969;28;47520;-55
2022/06/28 00:34:32;;;;;;;;;1.00;1.00;;;;;22.84;43.51;101545.06;2088342;28;47387;-54
2022/06/28 00:35:33;;;;;;;;;0.33;0.33;;;;;22.83;43.50;101544.19;2088053;28;47956;-55
2022/06/28 00:36:33;;;;;;;;;0.00;0.00;;;;;22.84;43.42;101545.06;2088588;28;47765;-54
2022/06/28 00:37:34;;;;;;;;;2.00;2.00;;;;;22.84;43.24;101542.38;2088517;28;47683;-54
2022/06/28 00:38:34;;;;;;;;;1.67;1.33;;;;;22.84;43.74;101542.38;2087526;28;48217;-55
2022/06/28 00:39:35;;;;;;;;;2.00;0.33;;;;;22.83;43.55;101544.19;2088079;28;47587;-55
2022/06/28 00:40:44;;;;;;;;;1.00;1.00;;;;;22.82;43.37;101537.00;2095655;28;47601;-55
2022/06/28 00:41:45;;;;;;;;;0.75;0.75;;;;;22.82;43.45;101541.56;2093966;28;47237;-55
2022/06/28 00:42:45;;;;;;;;;1.00;1.00;;;;;22.81;43.87;101543.41;2085896;28;47954;-57
2022/06/28 00:43:46;;;;;;;;;2.67;2.00;;;;;22.81;43.44;101547.94;2088733;28;47313;-55
2022/06/28 00:44:46;;;;;;;;;5.00;3.00;;;;;22.81;43.59;101542.53;2088608;28;48034;-56
2022/06/28 00:45:48;;;;;;;;;2.00;0.00;;;;;22.80;43.47;101540.78;2087011;28;47925;-53
2022/06/28 00:46:48;;;;;;;;;0.25;0.25;;;;;22.79;43.63;101542.63;2087176;28;47932;-54
2022/06/28 00:47:49;;;;;;;;;0.00;0.00;;;;;22.79;43.66;101533.63;2088435;28;47730;-56
2022/06/28 00:48:50;;;;;;;;;2.00;2.00;;;;;22.77;43.60;101535.56;2088485;28;48288;-56
2022/06/28 00:49:51;;;;;;;;;1.25;1.25;;;;;22.75;43.84;101532.94;2088491;28;47423;-56
2022/06/28 00:50:51;;;;;;;;;1.00;1.00;;;;;22.74;43.94;101531.22;2088305;28;47806;-54
2022/06/28 00:51:52;;;;;;;;;0.00;0.00;;;;;22.75;43.78;101542.91;2084739;28;47059;-55
2022/06/28 00:53:00;;;;;;;;;1.00;1.00;;;;;22.74;44.19;101531.22;2088397;28;47620;-54
2022/06/28 00:54:02;;;;;;;;;2.00;0.50;;;;;22.74;44.01;101536.63;2085390;28;47306;-56
2022/06/28 00:55:03;;;;;;;;;1.75;1.75;;;;;22.74;43.96;101538.44;2090983;28;47525;-56
2022/06/28 00:56:04;;;;;;;;;3.00;1.33;;;;;22.73;43.87;101532.13;2091114;28;47342;-56
2022/06/28 00:57:05;;;;;;;;;3.00;2.00;;;;;22.73;44.12;101539.38;2085242;28;47633;-56
2022/06/28 00:58:06;;;;;;;;;0.75;0.75;;;;;22.73;44.23;101537.56;2088809;28;45687;-56
2022/06/28 00:59:07;;;;;;;;;3.33;1.33;;;;;22.73;44.26;101540.25;2087667;28;47418;-56
2022/06/28 01:00:08;;;;;;;;;1.67;1.67;;;;;22.72;43.92;101534.94;2088218;28;46685;-56
2022/06/28 01:01:09;;;;;;;;;0.00;0.00;;;;;22.72;43.68;101529.53;2087070;28;48070;-57
2022/06/28 01:02:09;;;;;;;;;2.00;2.00;;;;;22.71;44.07;101528.66;2078915;28;47201;-55
2022/06/28 01:03:14;;;;;;;;;1.00;1.00;;;;;22.71;44.01;101530.50;2087306;28;47629;-57
2022/06/28 01:04:14;;;;;;;;;0.50;0.50;;;;;22.69;44.21;101529.72;2088699;28;47960;-55
2022/06/28 01:05:14;;;;;;;;;1.25;1.25;;;;;22.68;43.95;101526.16;2085732;28;47685;-57
2022/06/28 01:06:15;;;;;;;;;0.00;0.00;;;;;22.68;43.61;101527.97;2088897;28;47946;-56
2022/06/28 01:07:16;;;;;;;;;2.67;1.67;;;;;22.66;43.77;101528.06;2082037;28;47818;-55
2022/06/28 01:08:17;;;;;;;;;2.00;1.00;;;;;22.66;44.17;101527.22;2082938;28;47401;-54
2022/06/28 01:09:17;;;;;;;;;0.67;0.67;;;;;22.65;44.07;101534.44;2088055;28;47899;-56
2022/06/28 01:10:18;;;;;;;;;0.00;0.00;;;;;22.65;44.07;101539.00;2082209;28;47831;-56
2022/06/28 01:11:21;;;;;;;;;0.33;0.33;;;;;22.64;43.98;101531.84;2080738;28;47208;-55
2022/06/28 01:12:21;;;;;;;;;1.25;1.25;;;;;22.64;43.70;101531.84;2088690;28;47166;-54
2022/06/28 01:13:22;;;;;;;;;2.00;1.00;;;;;22.63;43.78;101524.69;2088209;28;47831;-55
2022/06/28 01:14:23;;;;;;;;;0.67;0.67;;;;;22.59;44.12;101527.56;2088047;28;47411;-55
2022/06/28 01:15:24;;;;;;;;;1.50;1.50;;;;;22.58;44.16;101530.34;2087916;28;47799;-55
2022/06/28 01:16:24;;;;;;;;;0.67;0.67;;;;;22.57;44.05;101525.91;2088280;28;48203;-55
2022/06/28 01:17:26;;;;;;;;;2.00;2.00;;;;;22.57;44.14;101529.47;2088647;28;47272;-56
2022/06/28 01:18:26;;;;;;;;;1.75;1.50;;;;;22.57;44.19;101536.72;2088413;28;47430;-54
2022/06/28 01:19:27;;;;;;;;;1.33;1.33;;;;;22.56;44.41;101526.88;2088430;28;47458;-56
2022/06/28 01:20:27;;;;;;;;;1.00;1.00;;;;;22.57;44.26;101525.91;2088831;28;45076;-57
2022/06/28 01:21:29;;;;;;;;;2.00;2.00;;;;;22.58;44.28;101524.94;2088177;28;47590;-58
2022/06/28 01:22:30;;;;;;;;;2.00;1.00;;;;;22.56;44.45;101533.16;2084529;28;47577;-57
2022/06/28 01:23:31;;;;;;;;;3.33;1.67;;;;;22.57;44.03;101529.47;2088134;28;47782;-54
2022/06/28 01:24:34;;;;;;;;;0.25;0.25;;;;;22.56;44.48;101527.75;2087727;28;48523;-55
2022/06/28 01:25:35;;;;;;;;;1.00;1.00;;;;;22.56;44.25;101529.56;2084551;28;47663;-55
2022/06/28 01:26:35;;;;;;;;;0.25;0.25;;;;;22.56;44.32;101533.16;2083155;28;47612;-55
2022/06/28 01:27:37;;;;;;;;;1.00;1.00;;;;;22.56;44.56;101521.47;2088781;28;47207;-55
2022/06/28 01:28:38;;;;;;;;;1.25;1.25;;;;;22.55;44.40;101527.84;2088318;28;47778;-56
2022/06/28 01:29:39;;;;;;;;;1.00;1.00;;;;;22.55;44.32;101528.72;2087944;28;47836;-56
2022/06/28 01:30:39;;;;;;;;;1.25;1.25;;;;;22.56;44.53;101532.28;2087566;28;48010;-55
2022/06/28 01:31:40;;;;;;;;;1.00;1.00;;;;;22.54;44.42;101524.25;2088553;28;48119;-55
2022/06/28 01:32:41;;;;;;;;;2.33;2.33;;;;;22.55;44.10;101533.25;2087744;28;47482;-56
2022/06/28 01:33:42;;;;;;;;;1.00;1.00;;;;;22.55;44.40;101533.25;2088437;28;47695;-56
2022/06/28 01:34:42;;;;;;;;;1.00;1.00;;;;;22.54;43.98;101534.22;2085422;28;47179;-56
2022/06/28 01:35:43;;;;;;;;;2.25;2.25;;;;;22.53;44.72;101530.63;2079759;28;47145;-56
2022/06/28 01:36:44;;;;;;;;;4.00;2.00;;;;;22.52;44.27;101530.72;2084862;28;47688;-56
2022/06/28 01:37:45;;;;;;;;;2.00;1.00;;;;;22.50;44.18;101525.41;2087859;28;47764;-57
2022/06/28 01:38:46;;;;;;;;;1.75;1.75;;;;;22.49;44.56;101536.31;2088366;28;47487;-57
2022/06/28 01:39:46;;;;;;;;;2.00;2.00;;;;;22.47;44.73;101530.97;2083769;28;47760;-57
2022/06/28 01:40:48;;;;;;;;;2.00;2.00;;;;;22.45;44.47;101522.09;2079791;28;47397;-57
2022/06/28 01:41:50;;;;;;;;;0.00;0.00;;;;;22.46;44.46;101525.66;2087611;28;47533;-56
2022/06/28 01:42:51;;;;;;;;;1.00;1.00;;;;;22.46;44.59;101525.66;2088236;28;47152;-56
2022/06/28 01:43:51;;;;;;;;;2.50;1.00;;;;;22.45;44.61;101529.31;2088555;28;47827;-55
2022/06/28 01:44:52;;;;;;;;;2.33;1.00;;;;;22.45;44.53;101526.63;2087958;28;47914;-56
2022/06/28 01:45:53;;;;;;;;;0.00;0.00;;;;;22.43;44.53;101523.16;2086641;28;47356;-56
2022/06/28 01:46:55;;;;;;;;;0.00;0.00;;;;;22.42;44.39;101522.28;2088772;28;45381;-55
2022/06/28 01:47:55;;;;;;;;;0.00;0.00;;;;;22.42;44.32;101516.88;2088391;28;47830;-56
2022/06/28 01:48:56;;;;;;;;;0.00;0.00;;;;;22.42;44.18;101521.41;2088092;28;47170;-57
2022/06/28 01:49:56;;;;;;;;;0.00;0.00;;;;;22.41;44.14;101525.06;2080738;28;47631;-53
2022/06/28 01:50:57;;;;;;;;;1.33;1.33;;;;;22.41;44.55;101517.81;2082334;28;47578;-57
2022/06/28 01:51:57;;;;;;;;;0.00;0.00;;;;;22.41;44.79;101523.22;2088332;28;47736;-55
2022/06/28 01:52:58;;;;;;;;;0.00;0.00;;;;;22.40;44.43;101524.19;2087277;28;47301;-56
2022/06/28 01:53:58;;;;;;;;;0.33;0.00;;;;;22.39;44.77;101522.47;2087960;28;47435;-56
2022/06/28 01:54:58;;;;;;;;;2.00;1.00;;;;;22.41;44.68;101535.88;2088060;28;47280;-55
2022/06/28 01:55:59;;;;;;;;;0.00;0.00;;;;;22.40;44.53;101528.75;2087394;28;47589;-56
2022/06/28 01:57:01;;;;;;;;;1.00;1.00;;;;;22.39;44.52;101524.28;2070320;28;46965;-56
2022/06/28 01:58:03;;;;;;;;;0.40;0.40;;;;;22.38;44.78;101520.72;2078813;28;47569;-56
2022/06/28 01:59:03;;;;;;;;;2.00;2.00;;;;;22.37;44.38;101521.69;2083266;28;48158;-56
2022/06/28 02:00:05;;;;;;;;;0.00;0.00;;;;;22.36;44.57;101519.94;2088000;28;47874;-55
2022/06/28 02:01:05;;;;;;;;;1.75;1.75;;;;;22.37;44.99;101523.50;2084267;28;47971;-56
2022/06/28 02:02:06;;;;;;;;;1.33;0.67;;;;;22.37;44.79;101518.97;2088061;28;47467;-56
2022/06/28 02:03:07;;;;;;;;;1.33;1.33;;;;;22.38;44.55;101519.84;2088455;28;47574;-56
2022/06/28 02:04:21;;;;;;;;;3.00;3.00;;;;;22.36;45.07;101519.94;2087901;28;47621;-57
2022/06/28 02:05:22;;;;;;;;;1.75;1.75;;;;;22.35;44.90;101515.47;2088072;28;47602;-55
2022/06/28 02:06:23;;;;;;;;;1.00;1.00;;;;;22.35;44.75;101520.88;2087000;28;47677;-55
2022/06/28 02:07:23;;;;;;;;;2.33;2.33;;;;;22.35;44.57;101517.28;2087701;28;47557;-55
2022/06/28 02:08:23;;;;;;;;;3.33;2.00;;;;;22.34;44.81;101521.84;2087800;28;47664;-54
2022/06/28 02:09:25;;;;;;;;;0.67;0.67;;;;;22.33;44.72;101512.84;2088129;28;47711;-56
2022/06/28 02:10:26;;;;;;;;;2.00;2.00;;;;;22.32;44.72;101513.81;2087649;28;47255;-56
2022/06/28 02:11:27;;;;;;;;;0.00;0.00;;;;;22.31;44.83;101512.06;2088144;28;46734;-55
2022/06/28 02:12:28;;;;;;;;;2.67;1.00;;;;;22.33;45.15;101511.97;2087817;28;47627;-54
2022/06/28 02:13:29;;;;;;;;;1.00;1.00;;;;;22.32;44.78;101512.94;2087894;28;47857;-56
2022/06/28 02:14:29;;;;;;;;;0.33;0.33;;;;;22.30;45.03;101510.34;2086831;28;47412;-57
2022/06/28 02:15:30;;;;;;;;;0.33;0.33;;;;;22.30;44.88;101514.88;2086893;28;47650;-55
2022/06/28 02:16:30;;;;;;;;;2.00;0.75;;;;;22.28;44.99;101514.09;2094176;28;47770;-55
2022/06/28 02:17:31;;;;;;;;;0.33;0.33;;;;;22.27;45.02;101510.53;2094672;28;47051;-55
2022/06/28 02:18:32;;;;;;;;;5.33;2.33;;;;;22.27;45.45;101515.06;2088131;28;46344;-55
2022/06/28 02:19:32;;;;;;;;;1.25;1.25;;;;;22.27;45.22;101515.06;2085798;28;46707;-55
2022/06/28 02:20:33;;;;;;;;;0.00;0.00;;;;;22.26;44.79;101510.63;2088019;28;47747;-58
2022/06/28 02:21:36;;;;;;;;;1.33;1.33;;;;;22.26;45.18;101510.63;2087832;28;47503;-54
2022/06/28 02:22:36;;;;;;;;;3.00;1.25;;;;;22.25;45.37;101512.44;2087350;28;47663;-56
2022/06/28 02:23:36;;;;;;;;;0.33;0.33;;;;;22.25;45.02;101504.34;2087574;28;47683;-56
2022/06/28 02:24:37;;;;;;;;;1.00;1.00;;;;;22.25;45.37;101507.03;2088011;28;47390;-54
2022/06/28 02:25:37;;;;;;;;;2.00;2.00;;;;;22.25;44.96;101508.88;2088028;28;47381;-55
2022/06/28 02:26:38;;;;;;;;;1.67;1.67;;;;;22.23;45.34;101506.25;2087690;28;47532;-56
2022/06/28 02:27:39;;;;;;;;;1.50;0.75;;;;;22.23;44.97;101511.66;2087642;28;47647;-55
2022/06/28 02:28:40;;;;;;;;;0.00;0.00;;;;;22.22;44.83;101509.03;2087146;28;47734;-55
2022/06/28 02:29:40;;;;;;;;;3.00;1.25;;;;;22.21;45.38;101509.97;2087343;28;47779;-56
2022/06/28 02:30:41;;;;;;;;;0.00;0.00;;;;;22.21;45.18;101509.97;2087606;28;47552;-57
2022/06/28 02:31:41;;;;;;;;;1.67;1.67;;;;;22.20;44.91;101513.66;2087994;28;48370;-58
2022/06/28 02:32:41;;;;;;;;;1.00;1.00;;;;;22.18;45.05;101508.34;2084905;28;47658;-55
2022/06/28 02:33:42;;;;;;;;;1.00;1.00;;;;;22.19;44.84;101509.22;2087248;28;47330;-56
2022/06/28 02:41:19;;;;;;;;;2.00;2.00;;;;;22.16;45.17;101512.09;2087827;28;47775;-57
2022/06/28 02:42:20;;;;;;;;;0.00;0.00;;;;;22.15;45.19;101503.13;2086233;28;47703;-58
2022/06/28 02:43:20;;;;;;;;;0.67;0.67;;;;;22.15;45.17;101502.25;2087406;28;47413;-57
2022/06/28 02:44:20;;;;;;;;;2.00;2.00;;;;;22.15;45.05;101511.22;2087280;28;46943;-56
2022/06/28 02:45:23;;;;;;;;;1.00;1.00;;;;;22.15;45.22;101502.25;2087463;28;47365;-54
2022/06/28 02:46:23;;;;;;;;;0.75;0.75;;;;;22.13;45.58;101502.34;2082833;28;47507;-57
2022/06/28 02:47:24;;;;;;;;;2.00;2.00;;;;;22.14;45.49;101508.63;2085703;28;47835;-55
2022/06/28 02:48:24;;;;;;;;;2.00;2.00;;;;;22.13;45.67;101507.75;2087793;28;48100;-55
2022/06/28 02:49:24;;;;;;;;;3.00;2.33;;;;;22.13;45.71;101502.34;2087854;28;47194;-53
2022/06/28 02:50:25;;;;;;;;;1.00;1.00;;;;;22.12;45.18;101506.00;2087871;28;47681;-54
2022/06/28 02:51:26;;;;;;;;;1.00;1.00;;;;;22.13;45.22;101502.34;2087935;28;47278;-56
2022/06/28 02:52:26;;;;;;;;;1.00;1.00;;;;;22.13;45.48;101509.56;2087510;28;47509;-53
2022/06/28 02:53:27;;;;;;;;;1.33;1.33;;;;;22.13;45.36;101507.75;2087937;28;47750;-55
2022/06/28 02:54:27;;;;;;;;;1.00;0.33;;;;;22.12;45.32;101500.59;2087773;28;47514;-55
2022/06/28 02:55:28;;;;;;;;;1.00;1.00;;;;;22.14;45.39;101508.63;2086539;28;47713;-56
2022/06/28 02:56:28;;;;;;;;;0.67;0.67;;;;;22.14;45.64;101511.31;2084895;28;47525;-53
2022/06/28 02:57:29;;;;;;;;;1.67;1.67;;;;;22.13;45.82;101507.75;2084811;28;47531;-57
2022/06/28 02:58:29;;;;;;;;;2.00;1.00;;;;;22.13;45.71;101512.28;2081926;28;47361;-56
2022/06/28 02:59:30;;;;;;;;;1.00;1.00;;;;;22.13;45.09;101512.28;2087917;28;47522;-55
2022/06/28 03:00:31;;;;;;;;;1.00;1.00;;;;;22.10;45.41;101507.91;2094147;28;47448;-55
2022/06/28 03:01:32;;;;;;;;;2.00;2.00;;;;;22.11;45.40;101509.66;2094962;28;46540;-54
2022/06/28 03:02:32;;;;;;;;;2.00;2.00;;;;;22.09;45.63;101507.97;2087680;28;48001;-55
2022/06/28 03:03:33;;;;;;;;;1.00;1.00;;;;;22.09;45.37;101503.44;2087963;28;47487;-55
2022/06/28 03:04:33;;;;;;;;;1.67;1.67;;;;;22.08;45.82;101504.41;2094275;28;47807;-56
2022/06/28 03:05:35;;;;;;;;;2.00;2.00;;;;;22.07;45.93;101507.22;2095261;28;47431;-54
2022/06/28 03:06:35;;;;;;;;;0.50;0.50;;;;;22.08;45.64;101506.25;2083385;28;47900;-52
2022/06/28 03:07:36;;;;;;;;;1.67;1.00;;;;;22.08;45.24;101512.53;2079693;28;47472;-56
2022/06/28 03:08:37;;;;;;;;;1.00;1.00;;;;;22.08;45.53;101511.66;2083546;28;48207;-55
2022/06/28 03:09:37;;;;;;;;;3.00;1.67;;;;;22.08;45.38;101514.34;2087897;28;47621;-55
2022/06/28 03:10:37;;;;;;;;;1.67;1.67;;;;;22.07;45.41;101508.06;2087663;28;47656;-55
2022/06/28 03:11:38;;;;;;;;;1.00;1.00;;;;;22.07;45.29;101512.63;2086838;28;47852;-54
2022/06/28 03:12:38;;;;;;;;;2.33;2.33;;;;;22.08;45.54;101514.34;2087900;28;47793;-54
2022/06/28 03:13:39;;;;;;;;;3.33;1.00;;;;;22.08;45.76;101508.94;2087897;28;47447;-55
2022/06/28 03:14:39;;;;;;;;;0.67;0.67;;;;;22.08;45.34;101503.53;2087430;28;48052;-55
2022/06/28 03:15:39;;;;;;;;;3.00;2.33;;;;;22.06;45.30;101511.75;2087646;28;47563;-56
2022/06/28 03:16:40;;;;;;;;;2.00;2.00;;;;;22.06;45.11;101502.75;2084845;28;47611;-56
2022/06/28 03:17:42;;;;;;;;;1.00;1.00;;;;;22.06;45.38;101510.88;2086422;28;47951;-57
2022/06/28 03:18:42;;;;;;;;;1.00;1.00;;;;;22.06;45.63;101513.56;2088015;28;47856;-55
2022/06/28 03:19:42;;;;;;;;;1.00;1.00;;;;;22.05;45.13;101509.97;2087771;28;45083;-56
2022/06/28 03:20:44;;;;;;;;;0.33;0.33;;;;;22.05;45.95;101509.97;2087654;28;48230;-55
2022/06/28 03:21:44;;;;;;;;;0.00;0.00;;;;;22.04;45.13;101511.78;2087853;28;48348;-56
2022/06/28 03:22:45;;;;;;;;;2.00;1.00;;;;;22.04;45.35;101517.19;2087314;28;47619;-54
2022/06/28 03:23:45;;;;;;;;;6.50;4.25;;;;;22.04;45.71;101519.91;2087337;28;46984;-55
2022/06/28 03:24:46;;;;;;;;;4.75;4.75;;;;;22.03;45.60;101509.19;2087649;28;47902;-56
2022/06/28 03:25:47;;;;;;;;;2.75;2.75;;;;;22.03;45.15;101520.88;2087928;28;47319;-56
2022/06/28 03:26:47;;;;;;;;;3.00;3.00;;;;;22.03;45.78;101510.06;2087574;28;47770;-56
2022/06/28 03:27:48;;;;;;;;;2.00;2.00;;;;;22.04;45.27;101508.22;2087946;28;45874;-55
2022/06/28 03:28:48;;;;;;;;;2.75;2.75;;;;;22.04;45.72;101505.53;2087502;28;47316;-56
2022/06/28 03:29:51;;;;;;;;;2.33;2.33;;;;;22.03;45.75;101514.59;2087765;28;47750;-54
2022/06/28 03:30:51;;;;;;;;;2.00;2.00;;;;;22.02;45.15;101513.72;2087332;28;47739;-53
2022/06/28 03:31:52;;;;;;;;;1.67;0.67;;;;;22.02;45.39;101511.03;2087024;28;47843;-55
2022/06/28 03:32:52;;;;;;;;;1.67;1.67;;;;;22.02;45.38;101507.44;2079550;28;47994;-55
2022/06/28 03:33:53;;;;;;;;;1.67;1.67;;;;;22.02;45.15;101512.84;2082250;28;47123;-55
2022/06/28 03:34:53;;;;;;;;;1.75;1.75;;;;;22.03;45.46;101517.28;2082829;28;47712;-57
2022/06/28 03:35:53;;;;;;;;;0.00;0.00;;;;;22.01;45.44;101505.72;2086801;28;47358;-55
2022/06/28 03:36:55;;;;;;;;;4.00;3.00;;;;;22.02;45.50;101505.63;2086833;28;47969;-55
2022/06/28 03:37:55;;;;;;;;;1.00;1.00;;;;;22.02;45.73;101508.31;2086596;28;47280;-55
2022/06/28 03:38:56;;;;;;;;;3.00;2.00;;;;;22.01;45.38;101506.56;2086903;28;47181;-55
2022/06/28 03:39:56;;;;;;;;;2.50;2.50;;;;;22.01;45.01;101511.97;2086241;28;47512;-52
2022/06/28 03:40:57;;;;;;;;;2.00;1.50;;;;;22.01;45.34;101503.00;2084779;28;47567;-55
2022/06/28 03:41:57;;;;;;;;;1.00;1.00;;;;;22.02;45.72;101507.44;2084807;28;46504;-56
2022/06/28 03:42:57;;;;;;;;;2.00;2.00;;;;;22.01;45.13;101495.75;2086576;28;46599;-54
2022/06/28 03:43:58;;;;;;;;;2.33;2.33;;;;;22.00;45.13;101507.53;2086449;28;47426;-56
2022/06/28 03:44:58;;;;;;;;;1.33;1.33;;;;;22.00;45.65;101512.06;2087261;28;46093;-56
2022/06/28 03:45:59;;;;;;;;;1.00;1.00;;;;;21.99;45.31;101508.50;2084894;28;47746;-54
2022/06/28 03:46:59;;;;;;;;;1.00;1.00;;;;;21.99;45.47;101504.94;2086773;28;47818;-56
2022/06/28 03:48:00;;;;;;;;;1.00;1.00;;;;;21.99;45.40;101510.34;2086255;28;47211;-54
2022/06/28 03:49:00;;;;;;;;;2.33;2.00;;;;;21.98;45.90;101506.75;2086611;28;47698;-55
2022/06/28 03:50:01;;;;;;;;;2.00;2.00;;;;;21.99;45.15;101507.63;2080468;28;47457;-54
2022/06/28 03:51:01;;;;;;;;;1.33;1.33;;;;;21.98;45.57;101506.75;2083520;28;47382;-56
2022/06/28 03:52:02;;;;;;;;;2.67;2.67;;;;;21.98;45.77;101506.75;2086485;28;47465;-55
2022/06/28 03:53:03;;;;;;;;;2.00;2.00;;;;;21.98;45.72;101508.59;2077001;28;48342;-56
2022/06/28 03:54:04;;;;;;;;;2.50;1.50;;;;;21.97;45.00;101510.38;2078315;28;48045;-55
2022/06/28 03:55:06;;;;;;;;;0.67;0.67;;;;;21.95;45.57;101509.59;2083980;28;47418;-56
2022/06/28 03:56:07;;;;;;;;;1.00;1.00;;;;;21.95;45.73;101512.31;2085925;28;47607;-54
2022/06/28 03:57:08;;;;;;;;;1.00;1.00;;;;;21.93;45.60;101513.38;2086615;28;47089;-55
2022/06/28 03:58:08;;;;;;;;;1.00;0.33;;;;;21.92;45.20;101517.91;2086214;28;47375;-55
2022/06/28 03:59:08;;;;;;;;;2.00;1.75;;;;;21.92;45.29;101517.91;2086521;28;47608;-54
2022/06/28 04:00:09;;;;;;;;;2.33;2.33;;;;;21.91;45.67;101518.84;2086253;28;47409;-53
2022/06/28 04:01:10;;;;;;;;;1.25;1.00;;;;;21.91;45.27;101518.84;2069302;28;47195;-55
2022/06/28 04:02:10;;;;;;;;;2.33;1.00;;;;;21.91;45.16;101516.16;2069970;28;47339;-56
2022/06/28 04:03:11;;;;;;;;;1.33;1.33;;;;;21.91;45.39;101512.59;2086464;28;47436;-55
2022/06/28 04:04:11;;;;;;;;;2.00;2.00;;;;;21.91;45.54;101520.69;2086502;28;47973;-54
2022/06/28 04:05:12;;;;;;;;;2.33;2.33;;;;;21.91;45.50;101518.84;2092723;28;47568;-55
2022/06/28 04:06:12;;;;;;;;;1.00;1.00;;;;;21.89;45.11;101518.06;2092863;28;47456;-55
2022/06/28 04:07:13;;;;;;;;;1.00;1.00;;;;;21.90;45.79;101516.25;2084307;28;47717;-52
2022/06/28 04:08:13;;;;;;;;;1.00;1.00;;;;;21.90;45.08;101514.41;2090647;28;47448;-57
2022/06/28 04:09:14;;;;;;;;;3.00;2.00;;;;;21.89;45.32;101518.06;2089294;28;47722;-56
2022/06/28 04:10:14;;;;;;;;;2.67;2.67;;;;;21.90;45.16;101514.41;2082679;28;47472;-55
2022/06/28 04:11:15;;;;;;;;;0.00;0.00;;;;;21.88;45.55;101521.75;2084649;28;47345;-55
2022/06/28 04:12:16;;;;;;;;;0.67;0.67;;;;;21.89;45.39;101515.38;2086325;28;47474;-56
2022/06/28 04:13:17;;;;;;;;;2.00;2.00;;;;;21.88;45.44;101513.63;2087108;28;47672;-55
2022/06/28 04:14:17;;;;;;;;;2.67;2.67;;;;;21.88;45.17;101521.75;2087494;28;47200;-54
2022/06/28 04:15:18;;;;;;;;;1.00;1.00;;;;;21.90;45.60;101524.34;2087060;28;47445;-55
2022/06/28 04:16:20;;;;;;;;;2.33;2.00;;;;;21.89;45.24;101518.06;2087207;28;47531;-57
2022/06/28 04:17:20;;;;;;;;;2.50;2.50;;;;;21.90;45.63;101524.34;2087339;28;47969;-56
2022/06/28 04:18:21;;;;;;;;;2.00;2.00;;;;;21.89;45.25;101519.91;2087262;28;46621;-55
2022/06/28 04:19:21;;;;;;;;;1.00;1.00;;;;;21.89;45.59;101518.06;2084068;28;47435;-56
2022/06/28 04:20:22;;;;;;;;;0.00;0.00;;;;;21.90;45.31;101518.94;2087253;28;47533;-55
2022/06/28 04:21:22;;;;;;;;;1.67;0.67;;;;;21.89;45.44;101512.66;2083355;28;47846;-55
2022/06/28 04:22:22;;;;;;;;;1.67;1.67;;;;;21.88;45.71;101519.03;2087230;28;47588;-55
2022/06/28 04:23:23;;;;;;;;;1.67;1.67;;;;;21.89;45.61;101518.06;2087219;28;47562;-54
2022/06/28 04:24:24;;;;;;;;;1.33;1.33;;;;;21.88;45.66;101515.47;2083920;28;47001;-54
2022/06/28 04:25:24;;;;;;;;;3.00;3.00;;;;;21.87;45.62;101514.59;2083657;28;48340;-54
2022/06/28 04:26:25;;;;;;;;;1.00;1.00;;;;;21.86;45.38;101514.69;2082808;28;47527;-55
2022/06/28 04:27:25;;;;;;;;;0.33;0.33;;;;;21.85;45.29;101519.22;2083025;28;45671;-53
2022/06/28 04:28:25;;;;;;;;;3.67;1.67;;;;;21.85;45.52;101523.72;2086709;28;48035;-57
2022/06/28 04:29:26;;;;;;;;;2.33;2.33;;;;;21.84;45.70;101522.84;2087251;28;47327;-55
2022/06/28 04:30:26;;;;;;;;;2.00;2.00;;;;;21.84;45.17;101521.97;2086887;28;47521;-57
2022/06/28 04:31:27;;;;;;;;;1.00;1.00;;;;;21.84;45.65;101521.97;2087201;28;47466;-54
2022/06/28 04:32:27;;;;;;;;;1.00;1.00;;;;;21.83;45.07;101528.34;2086515;28;48107;-55
2022/06/28 04:33:28;;;;;;;;;2.67;1.00;;;;;21.83;45.85;101531.03;2087189;28;47423;-56
2022/06/28 04:34:28;;;;;;;;;4.00;1.00;;;;;21.82;45.21;101532.88;2087186;28;46665;-55
2022/06/28 04:35:29;;;;;;;;;1.33;1.33;;;;;21.82;45.62;101526.59;2087138;28;47953;-56
2022/06/28 04:36:29;;;;;;;;;1.33;1.33;;;;;21.82;45.55;101532.00;2087318;28;47275;-55
2022/06/28 04:37:30;;;;;;;;;3.00;3.00;;;;;21.82;45.46;101530.19;2087373;28;47481;-55
2022/06/28 04:38:30;;;;;;;;;1.33;1.33;;;;;21.82;45.67;101532.00;2085070;28;47489;-54
2022/06/28 04:39:31;;;;;;;;;4.00;2.67;;;;;21.82;45.75;101530.19;2079060;28;47562;-56
2022/06/28 04:40:31;;;;;;;;;1.00;1.00;;;;;21.82;45.33;101537.41;2094095;28;47414;-55
2022/06/28 04:41:31;;;;;;;;;3.00;2.67;;;;;21.82;45.35;101527.47;2094307;28;47994;-56
2022/06/28 04:42:32;;;;;;;;;3.00;2.00;;;;;21.82;45.52;101532.88;2086628;28;47555;-56
2022/06/28 04:43:32;;;;;;;;;1.00;1.00;;;;;21.82;45.79;101537.41;2087156;28;47236;-56
2022/06/28 04:44:33;;;;;;;;;2.00;2.00;;;;;21.83;45.16;101528.34;2085937;28;47435;-56
2022/06/28 04:45:34;;;;;;;;;1.50;1.50;;;;;21.82;45.86;101522.06;2087036;28;47327;-54
2022/06/28 04:46:34;;;;;;;;;3.33;2.33;;;;;21.83;45.67;101533.75;2086941;28;47833;-55
2022/06/28 04:47:36;;;;;;;;;1.33;1.33;;;;;21.84;45.77;101528.25;2088820;28;47951;-54
2022/06/28 04:48:36;;;;;;;;;3.00;1.75;;;;;21.84;45.15;101527.38;2086251;28;47185;-55
2022/06/28 04:49:37;;;;;;;;;1.00;1.00;;;;;21.85;45.43;101526.41;2088656;28;47338;-56
2022/06/28 04:50:37;;;;;;;;;0.00;0.00;;;;;21.84;45.34;101530.97;2088302;28;47213;-55
2022/06/28 04:51:38;;;;;;;;;3.00;2.33;;;;;21.85;45.37;101531.81;2088560;28;47085;-56